Time;durP1;ratioP1;P1;durP2;ratioP2;P2;SDS_P1;SDS_P2;PMS_P1;PMS_P2;Temp;Humidity;BMP_temperature;BMP_pressure;BME280_temperature;BME280_humidity;BME280_pressure;Samples;Min_cycle;Max_cycle;Signal;HPM_P1;HPM_P2
2021/12/17 00:00:34;;;;;;;;;5.00;5.00;;;;;18.31;61.63;104093.72;5073029;28;8750;-66
2021/12/17 00:08:09;;;;;;;;;5.67;5.67;;;;;18.33;61.66;104102.59;5072823;28;9325;-66
2021/12/17 00:10:35;;;;;;;;;7.00;7.00;;;;;18.33;61.61;104099.09;5072603;28;9311;-65
2021/12/17 00:13:01;;;;;;;;;6.00;6.00;;;;;18.31;61.88;104103.41;5071810;28;8835;-65
2021/12/17 00:15:26;;;;;;;;;7.67;6.00;;;;;18.32;61.72;104095.53;5072651;28;8785;-66
2021/12/17 00:17:58;;;;;;;;;4.67;4.67;;;;;18.33;61.88;104105.25;5072136;28;8836;-66
2021/12/17 00:20:49;;;;;;;;;5.67;5.67;;;;;18.34;61.50;104109.72;5071848;28;9620;-66
2021/12/17 00:40:24;;;;;;;;;4.75;4.00;;;;;18.33;61.67;104115.84;5071971;28;9323;-67
2021/12/17 00:53:25;;;;;;;;;5.33;4.67;;;;;18.35;61.52;104106.25;5071690;28;9311;-66
2021/12/17 00:55:51;;;;;;;;;6.50;6.50;;;;;18.28;61.69;104090.97;5070520;28;9318;-66
2021/12/17 00:58:17;;;;;;;;;6.00;6.00;;;;;18.38;61.38;104104.53;5071785;28;9340;-66
2021/12/17 01:00:42;;;;;;;;;6.67;5.33;;;;;18.33;61.60;104104.38;5071358;28;8768;-66
2021/12/17 01:03:07;;;;;;;;;5.33;4.33;;;;;18.32;61.50;104106.13;5070809;28;8775;-66
2021/12/17 01:05:33;;;;;;;;;7.00;6.00;;;;;18.37;61.59;104106.28;5071851;28;8778;-66
2021/12/17 01:08:01;;;;;;;;;6.50;6.00;;;;;18.37;61.63;104100.13;5071098;28;9283;-65
2021/12/17 01:10:35;;;;;;;;;4.67;4.67;;;;;18.32;61.79;104090.25;5070902;28;8849;-66
2021/12/17 01:13:02;;;;;;;;;5.00;5.00;;;;;18.35;61.57;104105.34;5071441;28;9407;-65
2021/12/17 01:15:28;;;;;;;;;4.33;4.33;;;;;18.35;61.46;104097.41;5070433;28;9154;-65
2021/12/17 01:18:00;;;;;;;;;6.00;6.00;;;;;18.35;61.56;104087.72;5070947;28;9329;-66
2021/12/17 01:20:54;;;;;;;;;6.75;6.75;;;;;18.32;61.42;104086.69;5071393;28;9385;-66
2021/12/17 01:36:54;;;;;;;;;5.00;5.00;;;;;18.34;61.50;104095.56;5070049;28;9247;-66
2021/12/17 01:42:23;;;;;;;;;5.00;5.00;;;;;18.35;61.40;104107.97;4989616;28;9265;-66
2021/12/17 01:44:49;;;;;;;;;5.00;5.00;;;;;18.36;61.25;104101.84;4988502;28;9284;-66
2021/12/17 01:47:17;;;;;;;;;6.67;6.00;;;;;18.31;61.20;104099.00;5026800;28;8801;-66
2021/12/17 02:00:23;;;;;;;;;6.67;6.67;;;;;18.34;61.39;104107.06;5071092;28;9417;-67
2021/12/17 02:02:52;;;;;;;;;5.00;4.00;;;;;18.32;61.42;104102.56;5070843;28;9324;-66
2021/12/17 02:05:18;;;;;;;;;4.00;4.00;;;;;18.30;61.32;104091.91;5070189;28;9185;-66
2021/12/17 02:07:45;;;;;;;;;6.00;6.00;;;;;18.35;61.43;104102.69;5072562;28;9111;-67
2021/12/17 02:10:48;;;;;;;;;6.00;5.00;;;;;18.35;61.49;104100.03;5074932;28;8796;-65
2021/12/17 02:19:31;;;;;;;;;6.00;6.00;;;;;18.34;61.42;104092.94;5073443;28;9189;-66
2021/12/17 02:32:17;;;;;;;;;5.00;5.00;;;;;18.33;61.47;104117.59;5074453;28;9362;-66
2021/12/17 02:35:19;;;;;;;;;5.00;4.25;;;;;18.32;61.17;104108.75;5073707;28;9259;-67
2021/12/17 02:37:46;;;;;;;;;4.33;4.33;;;;;18.33;61.19;104115.84;5073143;28;9368;-66
2021/12/17 02:42:24;;;;;;;;;4.00;4.00;;;;;18.22;61.25;104087.16;5073617;28;9227;-66
2021/12/17 02:45:32;;;;;;;;;7.00;5.67;;;;;18.33;61.56;104113.19;5074388;28;9336;-66
2021/12/17 02:47:58;;;;;;;;;5.00;5.00;;;;;18.33;61.66;104107.91;5073292;28;9186;-67
2021/12/17 02:50:24;;;;;;;;;6.00;5.00;;;;;18.35;61.53;104113.28;5074258;28;9274;-66
2021/12/17 02:52:54;;;;;;;;;5.00;5.00;;;;;18.33;61.48;104104.38;5073852;28;8855;-65
2021/12/17 02:55:20;;;;;;;;;1.33;1.33;;;;;18.32;61.47;104105.22;5073573;28;9247;-65
2021/12/17 02:57:46;;;;;;;;;5.00;5.00;;;;;18.26;61.35;104089.06;5073460;28;9193;-66
2021/12/17 03:00:12;;;;;;;;;6.25;6.00;;;;;18.33;61.34;104107.03;5074214;28;9426;-65
2021/12/17 03:02:39;;;;;;;;;6.33;6.00;;;;;18.31;61.02;104101.66;5072989;28;9385;-66
2021/12/17 03:05:06;;;;;;;;;5.00;5.00;;;;;18.30;61.21;104091.00;5074099;28;8765;-66
2021/12/17 03:07:36;;;;;;;;;6.00;6.00;;;;;18.33;61.62;104093.78;5073633;28;9408;-66
2021/12/17 03:10:03;;;;;;;;;6.00;6.00;;;;;18.32;61.05;104090.25;5072883;28;9327;-66
2021/12/17 03:12:40;;;;;;;;;7.00;7.00;;;;;18.29;61.10;104083.94;5073963;28;9353;-66
2021/12/17 03:15:21;;;;;;;;;6.00;6.00;;;;;18.35;61.25;104092.09;5073027;28;9767;-66
2021/12/17 03:25:56;;;;;;;;;8.33;8.33;;;;;18.32;61.54;104094.63;5073236;28;9239;-66
2021/12/17 03:28:21;;;;;;;;;5.33;5.33;;;;;18.32;61.21;104086.69;5073315;28;9252;-66
2021/12/17 03:30:47;;;;;;;;;6.25;6.25;;;;;18.28;61.33;104085.66;5072318;28;9331;-66
2021/12/17 03:33:13;;;;;;;;;6.00;6.00;;;;;18.32;61.27;104090.25;5073286;28;8826;-66
2021/12/17 03:35:38;;;;;;;;;7.00;7.00;;;;;18.31;61.26;104096.38;5073474;28;8786;-66
2021/12/17 03:38:04;;;;;;;;;6.00;6.00;;;;;18.30;61.46;104094.56;5072220;28;8806;-66
2021/12/17 03:40:32;;;;;;;;;4.75;4.75;;;;;18.32;61.24;104094.63;5073271;28;8795;-66
2021/12/17 03:43:04;;;;;;;;;7.00;7.00;;;;;18.30;61.25;104094.56;5072423;28;11333;-66
2021/12/17 03:45:31;;;;;;;;;7.25;7.25;;;;;18.33;61.33;104091.16;5073496;28;9394;-66
2021/12/17 03:47:56;;;;;;;;;5.00;5.00;;;;;18.32;61.08;104089.34;5072988;28;9345;-67
2021/12/17 03:50:22;;;;;;;;;5.50;5.00;;;;;18.33;61.07;104092.03;5072247;28;10080;-67
2021/12/17 03:52:50;;;;;;;;;7.25;6.25;;;;;18.29;61.35;104087.47;5072997;28;8786;-65
2021/12/17 03:55:16;;;;;;;;;4.67;4.67;;;;;18.31;61.35;104098.09;5073050;28;8794;-66
2021/12/17 03:57:44;;;;;;;;;7.00;7.00;;;;;18.29;61.32;104097.16;5071794;28;9287;-66
2021/12/17 04:00:14;;;;;;;;;8.00;6.00;;;;;18.30;61.20;104094.56;5073108;28;8778;-66
2021/12/17 04:02:40;;;;;;;;;6.00;6.00;;;;;18.29;61.40;104097.16;5072277;28;9398;-67
2021/12/17 04:05:05;;;;;;;;;6.00;6.00;;;;;18.28;61.23;104096.25;5072295;28;9448;-67
2021/12/17 04:07:31;;;;;;;;;5.25;5.00;;;;;18.30;61.43;104098.94;5072791;28;8782;-66
2021/12/17 04:09:56;;;;;;;;;8.00;8.00;;;;;18.33;61.20;104105.25;5072630;28;8809;-65
2021/12/17 04:12:30;;;;;;;;;6.00;6.00;;;;;18.31;61.13;104112.25;5072031;28;8804;-65
2021/12/17 04:14:57;;;;;;;;;7.00;7.00;;;;;18.32;60.92;104106.13;5072687;28;8907;-66
2021/12/17 04:17:25;;;;;;;;;6.00;6.00;;;;;18.19;61.31;104084.34;5072531;28;9413;-66
2021/12/17 04:19:50;;;;;;;;;5.67;5.33;;;;;18.31;61.50;104100.75;5071557;28;9267;-66
2021/12/17 04:22:16;;;;;;;;;7.00;6.67;;;;;18.33;60.78;104101.72;5072541;28;9334;-66
2021/12/17 04:24:44;;;;;;;;;8.33;7.33;;;;;18.32;60.84;104103.47;5071999;28;8782;-66
2021/12/17 04:27:10;;;;;;;;;7.25;7.25;;;;;18.28;60.89;104092.69;5071516;28;8770;-66
2021/12/17 04:29:41;;;;;;;;;7.00;6.00;;;;;18.30;60.94;104102.50;5071865;28;9347;-65
2021/12/17 04:32:09;;;;;;;;;6.33;6.33;;;;;18.30;61.22;104105.13;5072083;28;8813;-66
2021/12/17 04:34:34;;;;;;;;;7.00;7.00;;;;;18.30;61.18;104104.22;5071629;28;9246;-66
2021/12/17 04:37:00;;;;;;;;;8.67;7.67;;;;;18.30;61.16;104112.16;5071922;28;9358;-66
2021/12/17 04:39:26;;;;;;;;;7.00;6.00;;;;;18.29;61.05;104115.66;5071690;28;8790;-65
2021/12/17 04:41:57;;;;;;;;;6.00;6.00;;;;;18.29;61.04;104108.63;5071916;28;8888;-67
2021/12/17 04:44:34;;;;;;;;;8.75;6.75;;;;;18.29;60.97;104108.63;5072041;28;9544;-67
2021/12/17 04:57:52;;;;;;;;;7.00;6.00;;;;;18.26;60.97;104103.19;5071292;28;9388;-67
2021/12/17 05:00:22;;;;;;;;;5.00;5.00;;;;;18.25;61.18;104090.84;5071629;28;9447;-67
2021/12/17 05:02:52;;;;;;;;;7.25;7.25;;;;;18.30;60.98;104096.28;5071142;28;9377;-66
2021/12/17 05:05:20;;;;;;;;;6.00;6.00;;;;;18.30;61.09;104104.22;5071612;28;9446;-67
2021/12/17 05:07:58;;;;;;;;;7.33;6.67;;;;;18.28;61.10;104095.34;5070066;28;9457;-66
2021/12/17 05:10:43;;;;;;;;;8.33;7.00;;;;;18.29;60.82;104094.50;5071701;28;9387;-66
2021/12/17 05:19:08;;;;;;;;;7.50;7.50;;;;;18.26;61.18;104089.06;5071084;28;9325;-66
2021/12/17 05:21:24;;;;;;;;;6.50;6.50;;;;;18.29;60.95;104094.50;5070677;28;9556;-66
2021/12/17 05:23:55;;;;;;;;;6.00;6.00;;;;;18.25;60.87;104084.63;5070757;28;9323;-66
2021/12/17 05:26:21;;;;;;;;;7.75;6.00;;;;;18.24;60.84;104082.81;5070403;28;9359;-66
2021/12/17 05:28:49;;;;;;;;;4.25;4.25;;;;;18.27;60.85;104101.47;5070002;28;9399;-66
2021/12/17 05:31:16;;;;;;;;;7.00;5.00;;;;;18.29;61.00;104108.63;5071343;28;9316;-66
2021/12/17 05:33:42;;;;;;;;;7.00;7.00;;;;;18.29;60.88;104111.28;5070607;28;9421;-67
2021/12/17 05:36:07;;;;;;;;;3.67;3.67;;;;;18.25;61.19;104098.78;5070665;28;10129;-67
2021/12/17 05:38:35;;;;;;;;;5.75;5.75;;;;;18.29;60.97;104108.63;5071144;28;8829;-66
2021/12/17 05:41:01;;;;;;;;;6.75;6.50;;;;;18.27;61.05;104101.47;5070486;28;8778;-65
2021/12/17 05:43:26;;;;;;;;;7.00;7.00;;;;;18.29;60.72;104100.72;5069626;28;9366;-65
2021/12/17 05:48:27;;;;;;;;;5.33;4.67;;;;;18.29;61.23;104103.34;5071235;28;8798;-65
2021/12/17 05:50:58;;;;;;;;;6.67;6.67;;;;;18.22;60.96;104089.81;5070000;28;9198;-65
2021/12/17 05:53:24;;;;;;;;;5.00;5.00;;;;;18.25;61.08;104105.78;5070964;28;9404;-66
2021/12/17 05:55:50;;;;;;;;;5.00;4.67;;;;;18.25;61.20;104108.44;5070539;28;9173;-66
2021/12/17 05:58:16;;;;;;;;;5.33;5.33;;;;;18.26;60.96;104116.41;5070242;28;9206;-66
2021/12/17 06:00:44;;;;;;;;;5.33;5.33;;;;;18.29;61.16;104113.94;5070613;28;9313;-66
2021/12/17 06:03:09;;;;;;;;;5.00;5.00;;;;;18.29;60.97;104116.56;5069770;28;9348;-66
2021/12/17 06:05:34;;;;;;;;;6.00;6.00;;;;;18.23;61.12;104105.72;5070125;28;9333;-66
2021/12/17 06:08:00;;;;;;;;;4.67;4.67;;;;;18.13;61.11;104089.41;5070590;28;8786;-66
2021/12/17 06:10:26;;;;;;;;;4.67;4.67;;;;;18.25;61.27;104106.72;5070939;28;8806;-66
2021/12/17 06:12:51;;;;;;;;;5.67;5.33;;;;;18.26;61.20;104119.06;5070037;28;8892;-67
2021/12/17 06:15:19;;;;;;;;;6.00;5.00;;;;;18.26;61.30;104127.00;5070878;28;10123;-66
2021/12/17 06:17:45;;;;;;;;;4.00;4.00;;;;;18.16;61.13;104110.69;5069720;28;8798;-67
2021/12/17 06:20:13;;;;;;;;;7.33;7.33;;;;;18.19;61.07;104118.75;5070670;28;9400;-66
2021/12/17 06:22:39;;;;;;;;;6.00;6.00;;;;;18.23;61.09;104129.53;5070802;28;8769;-66
2021/12/17 06:25:06;;;;;;;;;5.33;5.33;;;;;18.28;61.12;104129.72;5069769;28;9779;-66
2021/12/17 06:27:31;;;;;;;;;5.00;5.00;;;;;18.27;61.00;104128.81;5070453;28;8790;-66
2021/12/17 06:30:01;;;;;;;;;5.33;5.33;;;;;18.26;60.99;104123.44;5070476;28;9430;-65
2021/12/17 06:32:26;;;;;;;;;6.00;6.00;;;;;18.21;60.99;104115.34;5069483;28;9542;-65
2021/12/17 06:34:52;;;;;;;;;5.67;5.67;;;;;18.25;60.91;104126.97;5070392;28;9336;-65
2021/12/17 06:37:18;;;;;;;;;5.67;5.67;;;;;18.28;61.11;104135.00;5070379;28;8821;-65
2021/12/17 06:39:44;;;;;;;;;5.00;5.00;;;;;18.29;61.08;104136.84;5069380;28;8774;-67
2021/12/17 06:42:10;;;;;;;;;5.00;5.00;;;;;18.27;60.99;104135.84;5070559;28;8774;-66
2021/12/17 06:44:37;;;;;;;;;6.00;6.00;;;;;18.22;60.89;104130.34;5070576;28;9249;-66
2021/12/17 06:47:08;;;;;;;;;4.00;4.00;;;;;18.25;61.01;104129.59;5069423;28;11495;-65
2021/12/17 07:11:17;;;;;;;;;3.33;3.33;;;;;18.27;61.13;104143.78;5073289;28;9086;-65
2021/12/17 07:39:38;;;;;;;;;5.00;5.00;;;;;18.27;60.78;104163.19;5073393;28;9753;-66
2021/12/17 07:42:04;;;;;;;;;4.00;4.00;;;;;18.11;60.87;104142.22;5072760;28;8786;-67
2021/12/17 07:44:29;;;;;;;;;3.67;3.67;;;;;18.26;61.00;104164.03;5071151;28;8794;-66
2021/12/17 07:46:57;;;;;;;;;5.33;4.33;;;;;18.21;60.87;104154.13;5072718;28;8917;-66
2021/12/17 07:49:23;;;;;;;;;4.00;4.00;;;;;18.19;60.92;104166.34;5072512;28;8766;-66
2021/12/17 07:51:48;;;;;;;;;4.67;4.00;;;;;18.23;60.76;104161.25;5073027;28;9219;-66
2021/12/17 07:54:14;;;;;;;;;4.67;4.33;;;;;18.23;60.92;104169.19;5071992;28;8876;-64
2021/12/17 07:56:39;;;;;;;;;4.00;3.00;;;;;18.27;60.54;104180.81;5072031;28;8905;-65
2021/12/17 07:59:12;;;;;;;;;4.67;3.67;;;;;18.17;60.82;104168.03;5072784;28;8866;-65
2021/12/17 08:01:41;;;;;;;;;4.00;4.00;;;;;18.27;60.83;104176.44;5072329;28;8798;-66
2021/12/17 08:04:08;;;;;;;;;4.00;4.00;;;;;18.20;60.84;104174.38;5071380;28;8887;-66
2021/12/17 08:06:34;;;;;;;;;4.67;4.67;;;;;18.27;60.76;104187.00;5072111;28;8906;-66
2021/12/17 08:09:03;;;;;;;;;5.25;4.50;;;;;18.31;61.17;104177.47;5071980;28;8890;-66
2021/12/17 08:11:37;;;;;;;;;7.33;6.00;;;;;18.35;62.09;104179.41;5071845;28;8782;-66
2021/12/17 08:14:03;;;;;;;;;6.00;6.00;;;;;18.39;62.49;104183.09;5071888;28;9005;-67
2021/12/17 08:16:39;;;;;;;;;6.00;6.00;;;;;18.42;63.27;104183.22;5072354;28;9220;-66
2021/12/17 08:24:47;;;;;;;;;10.33;8.00;;;;;18.47;65.16;104177.28;5072296;28;8770;-66
2021/12/17 08:32:17;;;;;;;;;10.25;10.25;;;;;18.58;68.82;104167.19;5071403;28;9433;-68
2021/12/17 08:34:42;;;;;;;;;11.00;8.67;;;;;18.57;69.84;104174.22;5071876;28;9368;-66
2021/12/17 08:37:07;;;;;;;;;6.67;6.67;;;;;18.55;69.54;104172.34;5072034;28;8790;-67
2021/12/17 08:39:33;;;;;;;;;13.00;11.75;;;;;18.55;68.87;104169.72;5069792;28;8820;-64
2021/12/17 08:42:00;;;;;;;;;10.67;9.00;;;;;18.53;68.93;104174.91;5070951;28;8806;-66
2021/12/17 08:44:49;;;;;;;;;9.67;7.67;;;;;18.49;69.43;104179.97;5071903;28;8774;-67
2021/12/17 08:47:14;;;;;;;;;8.00;7.67;;;;;18.49;69.24;104172.03;5070114;28;9326;-66
2021/12/17 08:49:40;;;;;;;;;7.33;5.67;;;;;18.50;68.74;104174.75;5071742;28;9246;-66
2021/12/17 08:52:10;;;;;;;;;7.00;5.33;;;;;18.48;69.45;104173.81;5071722;28;8802;-66
2021/12/17 08:54:36;;;;;;;;;14.00;11.33;;;;;18.38;68.89;104160.09;5070965;28;9109;-65
2021/12/17 08:57:06;;;;;;;;;8.00;7.00;;;;;18.46;68.67;104163.97;5071235;28;9248;-65
2021/12/17 08:59:34;;;;;;;;;5.67;5.33;;;;;18.51;68.54;104173.97;5070971;28;9460;-65
2021/12/17 09:02:03;;;;;;;;;9.33;7.00;;;;;18.49;68.49;104178.25;5070365;28;9195;-66
2021/12/17 09:04:31;;;;;;;;;7.67;6.33;;;;;18.52;68.44;104183.69;5071749;28;9251;-65
2021/12/17 09:06:57;;;;;;;;;6.50;5.50;;;;;18.49;68.35;104175.59;5065710;28;9429;-65
2021/12/17 09:09:23;;;;;;;;;7.67;6.33;;;;;18.51;68.59;104180.97;5071263;28;9260;-65
2021/12/17 09:11:49;;;;;;;;;8.00;6.67;;;;;18.49;68.68;104186.19;5070904;28;9262;-66
2021/12/17 09:14:16;;;;;;;;;6.67;6.00;;;;;18.47;68.21;104190.50;5070677;28;11122;-65
2021/12/17 09:16:42;;;;;;;;;6.00;6.00;;;;;18.50;68.46;104184.44;5071370;28;9242;-65
2021/12/17 09:19:10;;;;;;;;;5.67;5.00;;;;;18.47;68.09;104177.28;5071029;28;9038;-65
2021/12/17 09:21:38;;;;;;;;;5.33;4.33;;;;;18.47;67.97;104181.66;5070663;28;8792;-66
2021/12/17 09:24:04;;;;;;;;;6.00;5.33;;;;;18.39;67.86;104168.13;5070669;28;9027;-65
2021/12/17 09:26:32;;;;;;;;;3.00;3.00;;;;;18.49;67.69;104178.25;5071366;28;9234;-65
2021/12/17 09:28:58;;;;;;;;;5.67;4.67;;;;;18.52;67.47;104180.16;5069541;28;8931;-65
2021/12/17 09:31:23;;;;;;;;;5.00;4.00;;;;;18.49;67.28;104185.25;5071303;28;8952;-65
2021/12/17 09:33:49;;;;;;;;;6.00;5.67;;;;;18.50;67.67;104195.03;5070283;28;8856;-65
2021/12/17 09:36:16;;;;;;;;;7.00;5.67;;;;;18.47;67.59;104190.50;5070388;28;8831;-65
2021/12/17 09:38:41;;;;;;;;;7.00;6.00;;;;;18.49;67.18;104193.19;5070764;28;8918;-65
2021/12/17 09:41:07;;;;;;;;;3.33;3.33;;;;;18.47;67.27;104185.22;5070802;28;9108;-65
2021/12/17 09:43:37;;;;;;;;;3.33;3.33;;;;;18.51;67.16;104199.47;5070399;28;8777;-66
2021/12/17 09:46:06;;;;;;;;;6.00;5.67;;;;;18.45;67.12;104196.56;5070415;28;9285;-65
2021/12/17 09:48:34;;;;;;;;;3.33;3.33;;;;;18.47;66.73;104201.09;5070645;28;9264;-66
2021/12/17 09:51:01;;;;;;;;;6.33;4.33;;;;;18.49;66.84;104206.44;5069921;28;9014;-66
2021/12/17 09:53:26;;;;;;;;;3.00;3.00;;;;;18.49;66.62;104203.78;5070635;28;9174;-65
2021/12/17 09:55:52;;;;;;;;;4.33;4.33;;;;;18.48;66.71;104202.00;5069682;28;9094;-65
2021/12/17 09:58:20;;;;;;;;;3.00;3.00;;;;;18.46;66.49;104207.22;5070658;28;8884;-65
2021/12/17 10:00:45;;;;;;;;;5.00;5.00;;;;;18.49;66.47;104210.00;5070386;28;8770;-66
2021/12/17 10:03:11;;;;;;;;;4.33;4.00;;;;;18.49;66.28;104215.28;5070141;28;9082;-66
2021/12/17 10:05:39;;;;;;;;;4.00;4.00;;;;;18.46;66.58;104214.25;5070211;28;8785;-66
2021/12/17 10:08:10;;;;;;;;;2.67;2.67;;;;;18.47;66.50;104216.06;5070386;28;9096;-66
2021/12/17 10:10:37;;;;;;;;;4.00;4.00;;;;;18.50;66.06;104226.78;5070139;28;9012;-66
2021/12/17 10:13:09;;;;;;;;;5.33;4.33;;;;;18.49;66.10;104230.25;5070290;28;9169;-65
2021/12/17 10:15:36;;;;;;;;;4.00;4.00;;;;;18.49;66.13;104227.59;5070831;28;9094;-65
2021/12/17 10:18:02;;;;;;;;;4.33;4.33;;;;;18.47;66.04;104229.28;5069543;28;9111;-65
2021/12/17 10:20:31;;;;;;;;;4.33;4.00;;;;;18.50;65.75;104237.34;5070466;28;9003;-64
2021/12/17 10:23:06;;;;;;;;;4.33;4.00;;;;;18.34;65.98;104215.53;5070152;28;11425;-65
2021/12/17 10:25:34;;;;;;;;;3.67;3.67;;;;;18.48;65.67;104234.66;5069726;28;9113;-65
2021/12/17 10:28:03;;;;;;;;;2.33;2.33;;;;;18.47;65.69;104245.16;5071114;28;9266;-66
2021/12/17 10:30:30;;;;;;;;;2.33;2.33;;;;;18.41;65.82;104231.69;5074634;28;9103;-66
2021/12/17 10:32:59;;;;;;;;;3.00;3.00;;;;;18.47;65.94;104237.22;5072078;28;9193;-66
2021/12/17 10:35:27;;;;;;;;;3.67;3.00;;;;;18.45;65.57;104236.25;5074462;28;9091;-67
2021/12/17 10:38:00;;;;;;;;;4.67;2.67;;;;;18.46;65.76;104235.41;5074140;28;9206;-66
2021/12/17 10:40:28;;;;;;;;;2.00;2.00;;;;;18.42;65.37;104225.53;5074601;28;9158;-65
2021/12/17 10:43:20;;;;;;;;;3.00;3.00;;;;;18.45;65.60;104236.25;5073891;28;9173;-66
2021/12/17 10:51:17;;;;;;;;;3.00;3.00;;;;;18.45;65.23;104231.88;5073897;28;9251;-66
2021/12/17 10:53:54;;;;;;;;;4.67;4.67;;;;;18.44;65.15;104232.72;5072812;28;9012;-66
2021/12/17 10:56:33;;;;;;;;;2.33;1.33;;;;;18.45;65.40;104228.31;5073978;28;9249;-65
2021/12/17 10:59:08;;;;;;;;;3.67;2.67;;;;;18.44;65.17;104237.09;5073637;28;9081;-65
2021/12/17 11:01:44;;;;;;;;;2.67;2.67;;;;;18.46;65.32;104230.13;5074008;28;9086;-66
2021/12/17 11:04:19;;;;;;;;;2.00;2.00;;;;;18.39;65.28;104218.38;5073504;28;9026;-66
2021/12/17 11:07:05;;;;;;;;;3.00;3.00;;;;;18.46;65.04;104232.78;5073251;28;9088;-64
2021/12/17 11:09:52;;;;;;;;;2.00;2.00;;;;;18.45;65.33;104225.66;5073779;28;9123;-66
2021/12/17 11:12:26;;;;;;;;;3.00;3.00;;;;;18.42;65.01;104226.44;5073384;28;9634;-66
2021/12/17 11:14:56;;;;;;;;;3.00;2.00;;;;;18.44;65.09;104229.16;5072742;28;9143;-65
2021/12/17 11:17:22;;;;;;;;;1.33;1.33;;;;;18.45;64.69;104234.50;5073503;28;9199;-65
2021/12/17 11:19:51;;;;;;;;;2.00;2.00;;;;;18.44;64.80;104222.13;5073228;28;9100;-64
2021/12/17 11:22:17;;;;;;;;;1.00;1.00;;;;;18.46;64.70;104225.75;5073074;28;8798;-65
2021/12/17 11:24:43;;;;;;;;;2.00;1.00;;;;;18.43;65.08;104222.97;5073175;28;8927;-65
2021/12/17 11:27:08;;;;;;;;;4.00;2.00;;;;;18.43;64.94;104222.97;5073110;28;9869;-65
2021/12/17 11:29:33;;;;;;;;;1.00;1.00;;;;;18.45;64.68;104236.25;5072861;28;8786;-65
2021/12/17 11:32:00;;;;;;;;;1.33;1.33;;;;;18.37;64.64;104219.16;5073016;28;8878;-65
2021/12/17 11:34:27;;;;;;;;;2.67;2.00;;;;;18.42;64.50;104221.16;5072805;28;8762;-66
2021/12/17 11:36:54;;;;;;;;;2.00;2.00;;;;;18.37;64.71;104213.88;5072917;28;9042;-66
2021/12/17 11:39:25;;;;;;;;;2.00;2.00;;;;;18.43;64.62;104219.41;5061262;28;9252;-65
2021/12/17 11:42:29;;;;;;;;;4.67;4.00;;;;;18.43;64.33;104217.69;5072153;28;9104;-65
2021/12/17 11:47:47;;;;;;;;;2.00;1.00;;;;;18.40;64.66;104212.25;5072425;28;9728;-66
2021/12/17 11:50:16;;;;;;;;;2.00;2.00;;;;;18.42;64.62;104210.56;5072357;28;9122;-66
2021/12/17 11:52:44;;;;;;;;;1.00;1.00;;;;;18.40;64.52;104199.03;5072817;28;9234;-66
2021/12/17 11:55:33;;;;;;;;;1.00;1.00;;;;;18.44;64.35;104200.97;5072958;28;9094;-65
2021/12/17 11:58:01;;;;;;;;;3.00;1.33;;;;;18.42;64.18;104209.66;5072314;28;9119;-66
2021/12/17 12:00:40;;;;;;;;;2.00;2.00;;;;;18.31;64.33;104198.63;5072990;28;9113;-65
2021/12/17 12:03:20;;;;;;;;;1.67;1.67;;;;;18.41;64.12;104208.75;5072027;28;9008;-66
2021/12/17 12:06:00;;;;;;;;;2.00;2.00;;;;;18.41;64.30;104216.69;5072811;28;9094;-66
2021/12/17 12:08:50;;;;;;;;;2.00;2.00;;;;;18.37;64.36;104212.09;5072954;28;9191;-65
2021/12/17 12:11:26;;;;;;;;;1.00;1.00;;;;;18.36;64.29;104215.63;5071972;28;9046;-65
2021/12/17 12:13:54;;;;;;;;;1.00;0.33;;;;;18.38;64.06;104221.84;5072339;28;9197;-65
2021/12/17 12:16:22;;;;;;;;;1.67;1.67;;;;;18.41;64.08;104226.41;5072433;28;9006;-66
2021/12/17 12:18:49;;;;;;;;;1.00;1.00;;;;;18.40;64.08;104222.84;5071818;28;9137;-66
2021/12/17 12:21:22;;;;;;;;;1.67;1.67;;;;;18.43;64.04;104220.31;5072413;28;8951;-65
2021/12/17 12:23:52;;;;;;;;;1.00;1.00;;;;;18.41;64.17;104227.28;5071592;28;9035;-67
2021/12/17 12:26:40;;;;;;;;;2.00;1.67;;;;;18.41;64.06;104231.69;5072155;28;9002;-65
2021/12/17 12:29:12;;;;;;;;;1.00;1.00;;;;;18.38;63.88;104232.44;5071557;28;8898;-66
2021/12/17 12:31:45;;;;;;;;;1.00;1.00;;;;;18.32;63.98;104222.50;5071388;28;9022;-65
2021/12/17 12:34:17;;;;;;;;;1.00;1.00;;;;;18.35;63.91;104230.56;5052450;28;9035;-65
2021/12/17 12:37:07;;;;;;;;;1.33;1.00;;;;;18.39;63.93;104228.06;5051717;28;9564;-65
2021/12/17 12:39:57;;;;;;;;;0.00;0.00;;;;;18.39;63.71;104222.75;5051644;28;8959;-66
2021/12/17 12:42:54;;;;;;;;;2.00;2.00;;;;;18.33;63.76;104219.00;5052262;28;9014;-66
2021/12/17 12:45:20;;;;;;;;;1.00;1.00;;;;;18.39;63.90;104220.13;4965104;28;9046;-66
2021/12/17 12:47:50;;;;;;;;;1.00;1.00;;;;;18.34;63.74;104219.91;5051383;28;9706;-65
2021/12/17 12:50:27;;;;;;;;;2.00;2.00;;;;;18.37;63.90;104219.16;5051727;28;9009;-65
2021/12/17 12:53:03;;;;;;;;;1.00;1.00;;;;;18.38;63.61;104215.66;5050855;28;9029;-65
2021/12/17 12:55:48;;;;;;;;;0.00;0.00;;;;;18.36;63.65;104207.66;5052004;28;8974;-66
2021/12/17 12:58:24;;;;;;;;;2.33;1.00;;;;;18.33;63.82;104202.25;5051588;28;8967;-65
2021/12/17 13:00:57;;;;;;;;;1.67;1.00;;;;;18.36;63.64;104207.66;5050559;28;8860;-65
2021/12/17 13:03:27;;;;;;;;;1.00;1.00;;;;;18.37;63.48;104206.81;5051726;28;9031;-65
2021/12/17 13:05:54;;;;;;;;;0.00;0.00;;;;;18.38;63.59;104205.06;5050529;28;8936;-66
2021/12/17 13:08:21;;;;;;;;;0.33;0.33;;;;;18.28;63.55;104174.69;5051676;28;9004;-65
2021/12/17 13:10:59;;;;;;;;;1.00;1.00;;;;;18.39;63.29;104197.22;5051345;28;8942;-66
2021/12/17 13:13:35;;;;;;;;;1.00;1.00;;;;;18.40;63.25;104192.84;5050842;28;9014;-66
2021/12/17 13:16:44;;;;;;;;;0.00;0.00;;;;;18.42;63.32;104196.44;5051427;28;9700;-66
2021/12/17 13:24:30;;;;;;;;;1.00;0.00;;;;;18.41;63.05;104195.53;5051516;28;8988;-66
2021/12/17 13:27:10;;;;;;;;;1.00;1.00;;;;;18.40;63.14;104191.09;5047552;28;8952;-64
2021/12/17 13:29:38;;;;;;;;;0.00;0.00;;;;;18.37;63.24;104174.19;5048837;28;9012;-67
2021/12/17 13:32:09;;;;;;;;;3.67;1.33;;;;;18.44;63.27;104181.53;5051783;28;8912;-67
2021/12/17 13:34:38;;;;;;;;;1.33;1.33;;;;;18.46;63.62;104185.16;5069822;28;9092;-66
2021/12/17 13:37:25;;;;;;;;;3.33;2.00;;;;;18.48;63.82;104172.91;5070614;28;9693;-66
2021/12/17 13:39:59;;;;;;;;;3.33;2.33;;;;;18.52;64.37;104177.53;5070812;28;9109;-67
2021/12/17 13:42:34;;;;;;;;;3.00;2.33;;;;;18.49;64.56;104175.59;5070476;28;8981;-66
2021/12/17 13:45:04;;;;;;;;;2.67;2.00;;;;;18.41;64.88;104161.13;5070695;28;9097;-67
2021/12/17 13:47:42;;;;;;;;;2.00;2.00;;;;;18.56;65.05;104182.09;5070956;28;9049;-67
2021/12/17 13:50:14;;;;;;;;;3.00;2.00;;;;;18.57;65.77;104183.88;5070277;28;9004;-67
2021/12/17 13:52:59;;;;;;;;;2.67;2.67;;;;;18.55;65.69;104186.50;5066691;28;9304;-65
2021/12/17 13:55:27;;;;;;;;;5.33;3.00;;;;;18.55;66.18;104182.94;5064709;28;10444;-65
2021/12/17 13:57:56;;;;;;;;;3.00;2.00;;;;;18.55;66.11;104185.59;5070489;28;9420;-65
2021/12/17 14:00:27;;;;;;;;;2.33;2.33;;;;;18.53;66.29;104187.25;5070683;28;9208;-67
2021/12/17 14:02:58;;;;;;;;;2.00;2.00;;;;;18.49;66.41;104188.81;5067275;28;9213;-66
2021/12/17 14:05:29;;;;;;;;;5.00;2.00;;;;;18.53;66.44;104179.31;5069516;28;9135;-67
2021/12/17 14:07:58;;;;;;;;;2.00;2.00;;;;;18.52;66.33;104180.16;5070422;28;9215;-67
2021/12/17 14:10:30;;;;;;;;;4.00;2.00;;;;;18.52;66.41;104190.75;5070200;28;9159;-67
2021/12/17 14:13:19;;;;;;;;;2.33;1.33;;;;;18.51;66.12;104179.25;5069593;28;9126;-66
2021/12/17 14:15:46;;;;;;;;;1.00;1.00;;;;;18.51;66.38;104188.91;5070273;28;9007;-66
2021/12/17 14:18:17;;;;;;;;;2.33;2.33;;;;;18.50;66.28;104188.00;5070044;28;9221;-67
2021/12/17 14:20:48;;;;;;;;;3.00;1.67;;;;;18.51;66.54;104189.84;5069499;28;9139;-67
2021/12/17 14:23:38;;;;;;;;;2.00;2.00;;;;;18.48;66.41;104188.78;5069969;28;9307;-67
2021/12/17 14:26:08;;;;;;;;;3.00;2.00;;;;;18.51;66.60;104194.19;5070139;28;9224;-66
2021/12/17 14:28:39;;;;;;;;;1.67;0.67;;;;;18.50;66.27;104202.97;5070228;28;9183;-67
2021/12/17 14:31:12;;;;;;;;;1.00;1.00;;;;;18.51;66.26;104197.78;5069907;28;9078;-67
2021/12/17 14:33:43;;;;;;;;;1.00;1.00;;;;;18.51;66.30;104188.91;5068188;28;9190;-67
2021/12/17 14:36:10;;;;;;;;;1.00;1.00;;;;;18.50;66.22;104193.28;5070574;28;9173;-67
2021/12/17 14:38:38;;;;;;;;;1.33;1.33;;;;;18.48;66.69;104192.34;5068256;28;9144;-66
2021/12/17 14:41:05;;;;;;;;;3.00;2.00;;;;;18.48;66.54;104194.97;5070100;28;9007;-66
2021/12/17 14:43:32;;;;;;;;;2.00;2.00;;;;;18.50;66.69;104176.50;5070437;28;9103;-66
2021/12/17 14:46:21;;;;;;;;;0.00;0.00;;;;;18.47;66.45;104187.88;5068374;28;9282;-66